Time;durP1;ratioP1;P1;durP2;ratioP2;P2;SDS_P1;SDS_P2;PMS_P1;PMS_P2;Temp;Humidity;BMP_temperature;BMP_pressure;BME280_temperature;BME280_humidity;BME280_pressure;Samples;Min_cycle;Max_cycle;Signal;HPM_P1;HPM_P2
2024/03/09 00:01:37;;;;;;;1.02;0.75;;;17.60;59.40;;;;;;4664718;30;20205;-84
2024/03/09 00:04:47;;;;;;;0.98;0.80;;;17.60;59.20;;;;;;4699866;30;20206;-83
2024/03/09 00:08:17;;;;;;;0.90;0.70;;;17.70;59.10;;;;;;4714894;30;20232;-83
2024/03/09 00:10:53;;;;;;;0.77;0.70;;;17.70;59.20;;;;;;4767946;30;20187;-83
2024/03/09 00:13:35;;;;;;;0.80;0.80;;;17.60;59.20;;;;;;4770969;30;20198;-84
2024/03/09 00:16:20;;;;;;;0.77;0.75;;;17.60;59.30;;;;;;4768221;30;20188;-83
2024/03/09 00:19:30;;;;;;;1.08;0.80;;;17.60;59.40;;;;;;4753290;30;20196;-83
2024/03/09 00:21:59;;;;;;;0.70;0.60;;;17.60;59.30;;;;;;4754308;30;20204;-83
2024/03/09 00:24:33;;;;;;;0.98;0.80;;;17.60;59.30;;;;;;4718155;30;20204;-84
2024/03/09 00:27:24;;;;;;;0.95;0.80;;;17.50;59.40;;;;;;4747415;30;20204;-84
2024/03/09 00:30:29;;;;;;;0.73;0.70;;;17.60;59.40;;;;;;4711579;30;20199;-83
2024/03/09 00:33:25;;;;;;;0.93;0.85;;;17.60;59.40;;;;;;4719011;30;20306;-84
2024/03/09 00:36:11;;;;;;;1.42;0.90;;;17.60;59.30;;;;;;4715009;30;20186;-83
2024/03/09 00:39:37;;;;;;;1.40;0.90;;;17.50;59.50;;;;;;4715716;30;20206;-83
2024/03/09 00:42:19;;;;;;;1.05;0.90;;;17.60;59.50;;;;;;4749394;30;20367;-83
2024/03/09 00:45:31;;;;;;;2.00;1.00;;;17.50;59.50;;;;;;4707596;30;20201;-83
2024/03/09 00:48:24;;;;;;;1.98;0.95;;;17.60;59.40;;;;;;4743770;30;20655;-83
2024/03/09 00:51:54;;;;;;;0.60;0.60;;;17.50;59.40;;;;;;4751321;30;20196;-83
2024/03/09 00:55:00;;;;;;;1.05;0.95;;;17.50;59.50;;;;;;4732488;30;20227;-83
2024/03/09 00:58:14;;;;;;;0.82;0.82;;;17.50;59.60;;;;;;4784457;30;20203;-83
2024/03/09 01:00:56;;;;;;;1.85;0.85;;;17.50;59.60;;;;;;4760123;30;20192;-82
2024/03/09 01:04:09;;;;;;;1.08;0.80;;;17.50;59.70;;;;;;4754095;30;20187;-83
2024/03/09 01:06:46;;;;;;;1.80;1.02;;;17.50;59.70;;;;;;4807102;29;20229;-83
2024/03/09 01:09:37;;;;;;;1.55;0.90;;;17.50;59.80;;;;;;4767428;30;20223;-84
2024/03/09 01:12:45;;;;;;;0.80;0.80;;;17.50;59.40;;;;;;4776781;29;20183;-83
2024/03/09 01:15:35;;;;;;;0.95;0.80;;;17.50;59.60;;;;;;4764158;29;20274;-83
2024/03/09 01:18:49;;;;;;;0.60;0.60;;;17.50;59.60;;;;;;4742729;30;20598;-83
2024/03/09 01:21:59;;;;;;;0.98;0.80;;;17.50;59.50;;;;;;4820803;29;20647;-83
2024/03/09 01:25:52;;;;;;;1.80;0.90;;;17.40;59.50;;;;;;4802662;29;20194;-83
2024/03/09 01:28:20;;;;;;;1.48;0.85;;;17.50;59.50;;;;;;4780142;29;20234;-83
2024/03/09 01:31:42;;;;;;;0.70;0.70;;;17.50;59.40;;;;;;4769936;30;20195;-84
2024/03/09 01:42:23;;;;;;;1.58;1.10;;;17.50;59.40;;;;;;4674403;30;20397;-83
2024/03/09 01:45:33;;;;;;;1.33;0.75;;;17.50;59.40;;;;;;4640578;30;20228;-83
2024/03/09 01:48:18;;;;;;;1.58;0.90;;;17.50;59.50;;;;;;4623228;30;20316;-83
2024/03/09 01:51:10;;;;;;;1.08;0.98;;;17.40;59.40;;;;;;4628380;31;20224;-83
2024/03/09 01:54:28;;;;;;;1.02;0.85;;;17.40;59.30;;;;;;4644052;30;20204;-83
2024/03/09 01:57:00;;;;;;;1.10;0.75;;;17.40;59.70;;;;;;4679508;30;20195;-83
2024/03/09 02:00:27;;;;;;;1.38;1.02;;;17.40;59.50;;;;;;4654214;30;20201;-83
2024/03/09 02:03:19;;;;;;;1.05;0.88;;;17.50;59.60;;;;;;4627785;31;20217;-83
2024/03/09 02:10:22;;;;;;;2.47;1.17;;;17.50;59.50;;;;;;4661628;30;20204;-84
2024/03/09 02:13:19;;;;;;;0.80;0.77;;;17.40;59.50;;;;;;4679486;30;20266;-83
2024/03/09 02:17:28;;;;;;;0.80;0.73;;;17.30;59.50;;;;;;4686104;30;20276;-83
2024/03/09 02:19:56;;;;;;;1.20;0.90;;;17.40;59.40;;;;;;4689274;30;20231;-83
2024/03/09 02:23:06;;;;;;;1.00;0.90;;;17.40;59.30;;;;;;4695184;30;20694;-83
2024/03/09 02:26:12;;;;;;;0.65;0.65;;;17.40;59.30;;;;;;4699371;30;20305;-83
2024/03/09 02:29:29;;;;;;;0.85;0.80;;;17.40;59.30;;;;;;4722393;30;20247;-83
2024/03/09 02:32:21;;;;;;;1.00;0.90;;;17.50;59.40;;;;;;4696906;30;20243;-84
2024/03/09 02:39:07;;;;;;;1.70;1.15;;;17.40;59.20;;;;;;4688825;30;20694;-83
2024/03/09 02:42:15;;;;;;;1.30;1.05;;;17.40;59.30;;;;;;4730623;30;20194;-83
2024/03/09 02:45:14;;;;;;;1.30;0.80;;;17.40;59.40;;;;;;4768457;30;20219;-83
2024/03/09 02:48:08;;;;;;;1.45;0.90;;;17.40;59.30;;;;;;4787522;30;20762;-83
2024/03/09 02:54:34;;;;;;;1.15;0.90;;;17.40;59.30;;;;;;4726477;30;20301;-85
2024/03/09 03:14:57;;;;;;;1.13;1.02;;;17.40;59.40;;;;;;5198200;22;25401600;-83
2024/03/09 03:18:03;;;;;;;;;;;;;;;;;;;;;
2024/03/09 03:21:16;;;;;;;1.00;0.90;;;17.30;59.20;;;;;;6018155;23;20228;-83
2024/03/09 03:24:14;;;;;;;0.60;0.60;;;17.40;59.40;;;;;;6015706;23;20203;-84
2024/03/09 03:27:35;;;;;;;1.02;0.93;;;17.40;59.20;;;;;;5953315;23;20604;-83
2024/03/09 03:30:48;;;;;;;1.13;1.02;;;17.40;59.30;;;;;;5983496;24;20203;-83
2024/03/09 03:33:25;;;;;;;1.10;0.90;;;17.40;59.20;;;;;;5822732;24;20167;-84
2024/03/09 03:36:13;;;;;;;;;;;;;;;;;;;;;
2024/03/09 03:42:05;;;;;;;1.23;0.90;;;17.40;59.20;;;;;;5693475;25;20186;-83
2024/03/09 03:45:23;;;;;;;0.90;0.80;;;17.30;59.30;;;;;;5642684;25;20307;-83
2024/03/09 03:47:54;;;;;;;1.05;0.93;;;17.30;59.20;;;;;;5643549;25;20174;-83
2024/03/09 03:50:44;;;;;;;;;;;;;;;;;;;;;
2024/03/09 03:53:41;;;;;;;;;;;;;;;;;;;;;
2024/03/09 03:56:09;;;;;;;1.20;1.00;;;17.30;59.20;;;;;;5711695;25;20598;-83
2024/03/09 03:59:05;;;;;;;0.90;0.90;;;17.20;59.20;;;;;;5698833;25;20273;-82
2024/03/09 04:01:54;;;;;;;1.05;0.90;;;17.30;59.20;;;;;;5622292;25;20224;-83
2024/03/09 04:04:50;;;;;;;;;;;;;;;;;;;;;
2024/03/09 04:07:43;;;;;;;1.38;0.90;;;17.30;59.20;;;;;;5653626;25;20269;-83
2024/03/09 04:10:13;;;;;;;1.20;1.10;;;17.40;59.20;;;;;;5645681;25;20637;-83
2024/03/09 04:13:26;;;;;;;1.08;0.98;;;17.30;59.20;;;;;;5681611;25;20171;-83
2024/03/09 04:15:52;;;;;;;1.05;0.95;;;17.30;59.30;;;;;;5690967;25;20251;-83
2024/03/09 04:18:30;;;;;;;1.13;0.90;;;17.40;59.30;;;;;;5769161;24;20226;-83
2024/03/09 04:21:16;;;;;;;1.00;0.90;;;17.30;59.10;;;;;;5749755;24;20623;-83
2024/03/09 04:23:53;;;;;;;0.82;0.82;;;17.30;59.30;;;;;;5739289;25;20191;-83
2024/03/09 04:27:10;;;;;;;1.52;1.30;;;17.30;59.20;;;;;;5769524;24;20568;-83
2024/03/09 04:30:20;;;;;;;0.98;0.90;;;17.30;59.10;;;;;;5824951;24;20163;-83
2024/03/09 04:32:52;;;;;;;1.42;0.90;;;17.30;59.20;;;;;;5790317;24;20238;-83
2024/03/09 04:35:53;;;;;;;0.90;0.80;;;17.30;59.20;;;;;;5800912;24;20164;-83
2024/03/09 04:38:47;;;;;;;0.90;0.80;;;17.30;59.20;;;;;;5786018;24;20167;-82
2024/03/09 04:41:38;;;;;;;0.90;0.80;;;17.30;59.10;;;;;;5803336;24;20258;-83
2024/03/09 04:44:33;;;;;;;1.95;0.90;;;17.30;59.10;;;;;;5790566;24;20160;-83
2024/03/09 04:47:01;;;;;;;1.30;1.08;;;17.30;59.10;;;;;;5876507;24;20637;-83
2024/03/09 04:50:10;;;;;;;1.10;0.80;;;17.30;59.20;;;;;;5925229;24;20188;-83
2024/03/09 04:53:22;;;;;;;0.82;0.82;;;17.40;59.10;;;;;;5912777;24;20157;-83
2024/03/09 04:56:06;;;;;;;1.02;0.80;;;17.30;59.20;;;;;;5896838;24;20249;-84
2024/03/09 04:59:21;;;;;;;1.08;0.98;;;17.30;59.10;;;;;;5921905;24;20160;-83
2024/03/09 05:02:28;;;;;;;0.85;0.80;;;17.30;59.20;;;;;;5896390;24;20701;-84
2024/03/09 05:05:30;;;;;;;1.40;1.02;;;17.40;59.10;;;;;;5844291;24;20162;-83
2024/03/09 05:08:18;;;;;;;2.15;0.90;;;17.30;58.90;;;;;;5855651;24;20174;-83
2024/03/09 05:10:56;;;;;;;1.27;1.00;;;17.30;59.20;;;;;;5865399;24;20237;-83
2024/03/09 05:13:48;;;;;;;1.40;0.90;;;17.30;59.00;;;;;;5885890;24;20604;-83
2024/03/09 05:20:23;;;;;;;1.00;0.80;;;17.30;59.00;;;;;;5818704;24;20191;-83
2024/03/09 05:23:28;;;;;;;1.40;1.13;;;17.30;59.10;;;;;;5773611;24;20226;-84
2024/03/09 05:26:15;;;;;;;1.45;0.90;;;17.30;59.20;;;;;;5789764;24;20160;-83
2024/03/09 05:29:31;;;;;;;1.65;1.05;;;17.30;59.10;;;;;;5757738;24;20166;-83
2024/03/09 05:32:50;;;;;;;1.05;0.80;;;17.30;59.20;;;;;;5707388;24;20496;-83
2024/03/09 05:42:46;;;;;;;2.50;1.05;;;17.20;59.10;;;;;;5736875;25;20197;-83
2024/03/09 05:46:07;;;;;;;1.02;0.90;;;17.30;58.90;;;;;;5751785;24;20168;-83
2024/03/09 05:49:27;;;;;;;1.00;0.90;;;17.20;58.90;;;;;;5763592;24;20254;-83
2024/03/09 05:55:43;;;;;;;1.00;0.95;;;17.30;59.00;;;;;;5753063;24;20196;-83
2024/03/09 05:58:52;;;;;;;1.45;0.90;;;17.20;59.10;;;;;;5763182;24;20247;-83
2024/03/09 06:01:26;;;;;;;1.75;1.30;;;17.30;59.20;;;;;;5736973;24;20615;-83
2024/03/09 06:11:56;;;;;;;0.80;0.80;;;17.20;59.10;;;;;;5596418;25;20233;-83
2024/03/09 06:18:16;;;;;;;1.13;0.90;;;17.20;59.10;;;;;;5637293;25;20190;-83
2024/03/09 06:21:31;;;;;;;1.17;1.05;;;17.20;59.00;;;;;;5661148;25;20163;-83
2024/03/09 06:24:17;;;;;;;;;;;;;;;;;;;;;
2024/03/09 06:26:55;;;;;;;0.93;0.80;;;17.30;59.20;;;;;;5638993;25;20254;-83
2024/03/09 06:30:19;;;;;;;1.48;1.05;;;17.20;59.00;;;;;;5662901;25;20178;-83
2024/03/09 06:33:19;;;;;;;1.40;1.00;;;17.30;59.20;;;;;;5635063;25;20622;-83
2024/03/09 06:36:37;;;;;;;1.05;0.95;;;17.20;58.90;;;;;;5566025;25;20222;-83
2024/03/09 06:43:16;;;;;;;1.10;0.90;;;17.20;59.10;;;;;;5579691;25;20199;-83
2024/03/09 07:04:09;;;;;;;1.10;1.00;;;17.30;58.90;;;;;;5633299;25;20189;-82
2024/03/09 07:11:28;;;;;;;;;;;;;;;;;;;;;
2024/03/09 07:14:45;;;;;;;;;;;;;;;;;;;;;
2024/03/09 07:17:28;;;;;;;;;;;;;;;;;;;;;
2024/03/09 07:20:27;;;;;;;1.40;1.10;;;17.30;58.70;;;;;;5660978;25;20246;-83
2024/03/09 07:27:08;;;;;;;1.38;1.10;;;17.20;58.90;;;;;;5685963;25;20499;-83
2024/03/09 07:29:51;;;;;;;1.00;0.90;;;17.30;58.90;;;;;;5644369;25;20171;-84
2024/03/09 07:33:13;;;;;;;1.33;1.10;;;17.30;58.90;;;;;;5642462;25;20617;-84
2024/03/09 07:36:22;;;;;;;1.20;1.00;;;17.20;59.40;;;;;;5658547;25;20167;-83
2024/03/09 07:39:54;;;;;;;;;;;;;;;;;;;;;
2024/03/09 07:53:38;;;;;;;1.33;1.08;;;17.30;58.60;;;;;;5685899;25;20237;-84
2024/03/09 07:56:18;;;;;;;2.08;1.10;;;17.30;58.50;;;;;;5672012;25;20688;-84
2024/03/09 07:58:55;;;;;;;1.40;1.30;;;17.40;58.40;;;;;;5588639;25;20157;-84
2024/03/09 08:02:18;;;;;;;1.20;1.10;;;17.40;58.40;;;;;;5588714;25;20165;-84
2024/03/09 08:04:57;;;;;;;1.92;0.90;;;17.40;58.20;;;;;;5636591;25;20168;-84
2024/03/09 08:07:30;;;;;;;2.33;1.00;;;17.50;58.00;;;;;;5659351;25;20669;-83
2024/03/09 08:10:39;;;;;;;4.20;1.20;;;17.40;58.00;;;;;;5617331;25;20167;-84
2024/03/09 08:13:53;;;;;;;2.00;1.10;;;17.50;57.80;;;;;;5665229;25;20164;-84
2024/03/09 08:20:24;;;;;;;1.25;1.05;;;17.60;57.20;;;;;;5791002;24;20175;-83
2024/03/09 08:26:45;;;;;;;1.05;0.80;;;17.70;56.80;;;;;;5709296;25;20240;-84
2024/03/09 08:29:34;;;;;;;1.65;0.90;;;17.70;56.90;;;;;;5740933;24;20161;-85
2024/03/09 08:32:05;;;;;;;2.70;1.10;;;17.80;56.50;;;;;;5764611;24;20165;-83
2024/03/09 08:34:34;;;;;;;1.55;1.15;;;17.80;56.80;;;;;;5743678;24;20680;-84
2024/03/09 08:37:09;;;;;;;1.27;1.10;;;17.70;57.10;;;;;;5743592;24;20215;-84
2024/03/09 08:40:06;;;;;;;2.92;1.23;;;17.70;57.40;;;;;;5742650;24;20165;-85
2024/03/09 08:43:11;;;;;;;4.90;1.10;;;17.70;56.70;;;;;;5763970;24;20299;-84
2024/03/09 08:46:12;;;;;;;4.00;1.10;;;17.70;56.90;;;;;;5765333;24;20153;-85
2024/03/09 08:48:52;;;;;;;2.75;1.13;;;17.70;56.90;;;;;;5739972;24;20211;-85
2024/03/09 08:51:55;;;;;;;3.65;1.13;;;17.80;57.30;;;;;;5719015;25;20164;-84
2024/03/09 08:54:44;;;;;;;3.72;1.17;;;17.70;57.00;;;;;;5767693;24;20186;-84
2024/03/09 08:57:13;;;;;;;3.30;1.00;;;17.70;56.90;;;;;;5769283;24;20161;-85
2024/03/09 09:03:27;;;;;;;;;;;;;;;;;;;;;
2024/03/09 09:06:08;;;;;;;6.30;1.00;;;17.90;57.30;;;;;;5866821;24;20236;-84
2024/03/09 09:08:53;;;;;;;6.32;1.02;;;17.90;57.30;;;;;;5884557;24;20233;-84
2024/03/09 09:11:35;;;;;;;3.50;1.02;;;17.90;57.00;;;;;;5946940;24;20204;-85
2024/03/09 09:14:03;;;;;;;2.85;1.00;;;17.90;56.90;;;;;;5938120;24;20148;-84
2024/03/09 09:17:06;;;;;;;4.90;1.10;;;17.90;56.90;;;;;;5935782;24;20238;-84
2024/03/09 09:19:41;;;;;;;2.65;1.00;;;17.90;57.20;;;;;;5975363;24;20223;-85
2024/03/09 09:22:16;;;;;;;3.88;1.33;;;17.90;57.40;;;;;;5992503;23;20296;-84
2024/03/09 09:24:54;;;;;;;2.78;1.20;;;17.80;57.20;;;;;;6039848;23;20148;-83
2024/03/09 09:27:25;;;;;;;2.17;0.93;;;17.90;57.10;;;;;;6154590;23;20149;-84
2024/03/09 09:30:53;;;;;;;3.40;1.20;;;17.80;57.00;;;;;;6180175;23;20287;-85
2024/03/09 09:33:28;;;;;;;2.20;1.05;;;17.80;57.20;;;;;;6208523;23;20141;-84
2024/03/09 09:35:55;;;;;;;1.70;0.90;;;17.90;57.50;;;;;;6165876;23;20154;-83
2024/03/09 09:39:01;;;;;;;;;;;;;;;;;;;;;
2024/03/09 09:41:32;;;;;;;3.75;1.10;;;17.90;57.10;;;;;;6165717;23;20182;-83
2024/03/09 09:44:11;;;;;;;3.28;1.02;;;17.90;57.00;;;;;;6165389;23;20155;-84
2024/03/09 09:46:57;;;;;;;2.67;1.08;;;17.90;57.00;;;;;;6122891;23;20171;-83
2024/03/09 09:49:28;;;;;;;5.43;1.10;;;17.90;57.10;;;;;;6124736;23;20163;-84
2024/03/09 09:52:09;;;;;;;7.50;1.13;;;18.00;57.10;;;;;;6104284;23;20172;-83
2024/03/09 09:55:09;;;;;;;;;;;;;;;;;;;;;
2024/03/09 09:58:12;;;;;;;3.25;0.90;;;17.90;57.20;;;;;;6028346;23;20181;-85
2024/03/09 10:00:41;;;;;;;3.53;1.30;;;17.90;57.40;;;;;;6058000;23;20246;-83
2024/03/09 10:03:10;;;;;;;2.53;1.05;;;17.90;56.90;;;;;;6017831;23;20201;-83
2024/03/09 10:05:36;;;;;;;2.88;1.00;;;18.00;56.80;;;;;;6008774;23;20223;-86
2024/03/09 10:08:11;;;;;;;5.15;1.30;;;17.90;57.10;;;;;;5962402;24;20166;-85
2024/03/09 10:11:22;;;;;;;8.07;1.20;;;17.90;57.20;;;;;;5999641;23;20158;-84
2024/03/09 10:14:27;;;;;;;4.55;1.00;;;18.00;57.50;;;;;;5925191;24;20168;-84
2024/03/09 10:16:53;;;;;;;3.05;0.98;;;18.10;57.30;;;;;;5836034;24;20210;-83
2024/03/09 10:19:26;;;;;;;4.57;1.00;;;18.00;57.00;;;;;;5831083;24;20249;-84
2024/03/09 10:21:52;;;;;;;3.03;1.13;;;17.90;56.50;;;;;;5853218;24;20291;-83
2024/03/09 10:24:23;;;;;;;5.50;1.15;;;18.00;57.50;;;;;;5853017;24;20169;-83
2024/03/09 10:27:15;;;;;;;7.68;1.15;;;18.00;57.60;;;;;;5902215;24;20181;-83
2024/03/09 10:29:50;;;;;;;6.85;1.55;;;18.00;58.20;;;;;;5980099;24;20242;-84
2024/03/09 10:32:22;;;;;;;4.13;0.90;;;17.90;57.50;;;;;;5914499;24;20639;-82
2024/03/09 10:35:09;;;;;;;6.90;1.30;;;18.00;57.60;;;;;;5906705;24;20160;-83
2024/03/09 10:38:33;;;;;;;6.03;1.10;;;18.00;57.60;;;;;;5854558;24;20196;-84
2024/03/09 10:41:04;;;;;;;8.73;1.45;;;18.00;56.50;;;;;;5823058;24;20242;-83
2024/03/09 10:43:31;;;;;;;13.38;1.80;;;18.00;56.80;;;;;;5877002;24;20198;-84
2024/03/09 10:45:59;;;;;;;5.97;1.27;;;18.00;57.40;;;;;;5961199;24;20272;-84
2024/03/09 10:48:48;;;;;;;7.10;1.15;;;18.00;57.80;;;;;;5964629;24;20164;-83
2024/03/09 10:51:36;;;;;;;6.65;1.48;;;18.00;56.80;;;;;;5978565;23;20266;-83
2024/03/09 10:54:23;;;;;;;1.80;0.88;;;18.00;57.70;;;;;;5977904;23;20215;-83
2024/03/09 10:56:51;;;;;;;3.17;1.25;;;18.00;57.20;;;;;;5979866;24;20227;-83
2024/03/09 10:59:22;;;;;;;7.15;1.30;;;18.00;57.60;;;;;;5984237;24;20167;-82
2024/03/09 11:01:52;;;;;;;3.28;1.10;;;18.00;58.00;;;;;;5981546;24;20272;-83
2024/03/09 11:04:20;;;;;;;5.13;1.27;;;18.10;57.00;;;;;;5951990;24;20164;-82
2024/03/09 11:06:47;;;;;;;2.97;1.33;;;18.10;57.00;;;;;;6030166;23;20183;-83
2024/03/09 11:09:15;;;;;;;6.28;1.15;;;18.20;56.80;;;;;;6087339;23;20148;-83
2024/03/09 11:11:41;;;;;;;8.13;1.20;;;18.10;57.80;;;;;;6106712;23;20264;-82
2024/03/09 11:14:11;;;;;;;4.25;1.20;;;18.10;58.20;;;;;;6183133;23;20145;-83
2024/03/09 11:16:37;;;;;;;5.90;1.58;;;18.00;58.10;;;;;;6204620;22;20203;-83
2024/03/09 11:19:03;;;;;;;3.95;1.13;;;18.10;57.70;;;;;;6254897;22;20287;-83
2024/03/09 11:21:54;;;;;;;8.32;1.70;;;18.20;57.00;;;;;;6227854;22;20179;-84
2024/03/09 11:24:29;;;;;;;4.38;1.00;;;18.20;57.70;;;;;;6195784;23;20153;-83
2024/03/09 11:26:57;;;;;;;4.25;1.15;;;18.20;57.80;;;;;;6160550;23;20151;-85
2024/03/09 11:29:45;;;;;;;5.40;1.15;;;18.30;57.60;;;;;;6162583;23;20204;-85
2024/03/09 11:32:20;;;;;;;3.22;1.00;;;18.20;57.80;;;;;;6156883;23;20215;-85
2024/03/09 11:35:18;;;;;;;3.33;1.02;;;18.20;57.80;;;;;;6077750;23;20148;-85
2024/03/09 11:38:04;;;;;;;3.05;1.25;;;18.20;57.20;;;;;;6060969;23;20155;-85
2024/03/09 11:40:35;;;;;;;3.75;1.02;;;18.30;58.00;;;;;;6057742;23;20655;-84
2024/03/09 11:43:31;;;;;;;2.33;1.10;;;18.20;58.00;;;;;;6017199;23;20216;-85
2024/03/09 11:46:03;;;;;;;7.35;1.38;;;18.20;56.80;;;;;;6020122;23;20159;-84
2024/03/09 11:48:29;;;;;;;6.65;1.50;;;18.30;57.50;;;;;;5994297;23;20907;-84
2024/03/09 11:51:07;;;;;;;7.22;1.10;;;18.30;57.10;;;;;;5994428;23;20165;-84
2024/03/09 11:53:38;;;;;;;7.05;1.10;;;18.30;57.50;;;;;;5994574;23;20185;-84
2024/03/09 11:56:10;;;;;;;6.72;1.33;;;18.30;58.50;;;;;;6019191;23;20605;-84
2024/03/09 11:58:36;;;;;;;4.55;1.23;;;18.30;57.50;;;;;;5989615;23;20169;-85
2024/03/09 12:01:01;;;;;;;5.93;1.30;;;18.30;58.10;;;;;;6051278;23;20212;-84
2024/03/09 12:03:33;;;;;;;5.35;1.27;;;18.30;57.90;;;;;;6072645;23;20427;-84
2024/03/09 12:06:03;;;;;;;4.90;1.50;;;18.30;58.00;;;;;;6073195;23;20157;-83
2024/03/09 12:08:31;;;;;;;6.85;1.20;;;18.20;57.70;;;;;;6050740;23;20160;-84
2024/03/09 12:10:58;;;;;;;3.08;1.30;;;18.20;58.00;;;;;;6051801;23;20153;-84
2024/03/09 12:13:26;;;;;;;3.88;1.15;;;18.20;58.30;;;;;;6130756;23;20226;-83
2024/03/09 12:15:53;;;;;;;5.28;1.55;;;18.20;58.40;;;;;;6173335;23;20142;-82
2024/03/09 12:18:19;;;;;;;5.63;1.30;;;18.20;57.80;;;;;;6196914;23;20706;-81
2024/03/09 12:20:47;;;;;;;5.85;1.20;;;18.20;58.30;;;;;;6193687;23;20227;-82
2024/03/09 12:23:19;;;;;;;7.10;1.30;;;18.30;58.30;;;;;;6251109;23;20162;-85
2024/03/09 12:25:46;;;;;;;5.22;1.38;;;18.30;58.50;;;;;;6252382;23;20130;-84
2024/03/09 12:28:16;;;;;;;5.43;1.15;;;18.30;57.50;;;;;;6227351;23;20155;-84
2024/03/09 12:30:49;;;;;;;5.32;1.33;;;18.30;57.70;;;;;;6226748;23;20232;-84
2024/03/09 12:33:15;;;;;;;3.70;1.20;;;18.30;58.80;;;;;;6252324;23;20227;-84
2024/03/09 12:35:42;;;;;;;2.95;1.13;;;18.20;58.80;;;;;;6251105;23;20130;-84
2024/03/09 12:38:10;;;;;;;6.35;1.30;;;18.20;58.60;;;;;;6249778;23;20137;-83
2024/03/09 12:40:38;;;;;;;4.35;1.50;;;18.20;58.90;;;;;;6247928;23;20138;-83
2024/03/09 12:43:05;;;;;;;2.70;1.10;;;18.20;57.80;;;;;;6249926;23;20162;-83
2024/03/09 12:45:31;;;;;;;7.65;1.40;;;18.20;58.70;;;;;;6248252;23;20141;-82
2024/03/09 12:47:58;;;;;;;3.65;1.20;;;18.20;57.60;;;;;;6249500;23;20236;-83
2024/03/09 12:50:33;;;;;;;7.68;1.52;;;18.20;58.90;;;;;;6224469;23;20235;-83
2024/03/09 12:53:00;;;;;;;2.35;1.10;;;18.20;58.40;;;;;;6225154;23;20157;-85
2024/03/09 12:55:35;;;;;;;3.70;1.08;;;18.20;58.70;;;;;;6224866;23;20150;-83
2024/03/09 12:58:02;;;;;;;4.88;1.35;;;18.10;58.80;;;;;;6225119;23;20152;-83
2024/03/09 13:00:30;;;;;;;4.65;1.30;;;18.10;59.70;;;;;;6226629;23;20180;-82
2024/03/09 13:02:56;;;;;;;6.35;1.45;;;18.10;58.80;;;;;;6223331;23;20203;-82
2024/03/09 13:05:23;;;;;;;13.70;1.73;;;18.20;60.00;;;;;;6220899;23;20146;-82
2024/03/09 13:07:51;;;;;;;2.92;1.02;;;18.10;59.50;;;;;;6221783;23;20476;-82
2024/03/09 13:10:24;;;;;;;3.15;1.05;;;18.20;59.10;;;;;;6222607;23;20149;-82
2024/03/09 13:12:51;;;;;;;5.45;1.20;;;18.20;59.50;;;;;;6248755;23;20133;-82
2024/03/09 13:15:21;;;;;;;8.48;1.33;;;18.20;59.80;;;;;;6221056;23;20195;-82
2024/03/09 13:17:49;;;;;;;2.47;1.20;;;18.20;59.20;;;;;;6249700;23;20189;-84
2024/03/09 13:20:18;;;;;;;3.97;1.27;;;18.20;58.70;;;;;;6224041;23;20157;-82
2024/03/09 13:22:48;;;;;;;3.25;1.17;;;18.20;58.90;;;;;;6223536;23;20256;-82
2024/03/09 13:25:23;;;;;;;3.65;1.27;;;18.20;58.70;;;;;;6224014;23;20580;-82
2024/03/09 13:27:49;;;;;;;2.88;0.90;;;18.20;58.60;;;;;;6185886;23;20146;-83
2024/03/09 13:30:25;;;;;;;4.72;1.00;;;18.30;58.90;;;;;;6188375;23;20147;-83
2024/03/09 13:32:56;;;;;;;3.03;1.23;;;18.30;59.10;;;;;;6186855;23;20159;-84
2024/03/09 13:35:22;;;;;;;3.92;1.17;;;18.30;58.70;;;;;;6186764;23;20142;-83
2024/03/09 13:37:49;;;;;;;4.13;1.65;;;18.30;58.80;;;;;;6162476;23;20154;-83
2024/03/09 13:40:32;;;;;;;4.25;1.20;;;18.30;58.70;;;;;;6161574;23;20189;-83
2024/03/09 13:43:03;;;;;;;5.05;1.05;;;18.30;59.70;;;;;;6162160;23;20190;-83
2024/03/09 13:45:32;;;;;;;5.82;1.20;;;18.30;59.20;;;;;;6162749;23;20602;-84
2024/03/09 13:48:43;;;;;;;4.65;1.10;;;18.30;59.10;;;;;;6163114;23;20998;-83
2024/03/09 13:51:34;;;;;;;1.55;0.90;;;18.30;58.40;;;;;;6160844;23;20185;-84
2024/03/09 13:54:02;;;;;;;4.70;1.40;;;18.30;58.80;;;;;;6133751;23;20147;-82
2024/03/09 13:56:41;;;;;;;3.35;1.10;;;18.30;58.90;;;;;;6161284;23;20135;-82
2024/03/09 13:59:13;;;;;;;3.70;1.10;;;18.30;58.90;;;;;;6217410;23;20540;-82
2024/03/09 14:01:40;;;;;;;3.78;1.30;;;18.30;58.90;;;;;;6223347;23;20145;-82
2024/03/09 14:04:10;;;;;;;3.00;1.08;;;18.30;59.10;;;;;;6223042;23;20149;-82
2024/03/09 14:06:52;;;;;;;3.50;1.30;;;18.20;58.80;;;;;;6248041;23;20153;-82
2024/03/09 14:09:18;;;;;;;2.58;1.15;;;18.30;57.90;;;;;;6223682;23;20142;-82
2024/03/09 14:11:45;;;;;;;2.70;1.13;;;18.40;58.50;;;;;;6223365;23;20157;-82
2024/03/09 14:14:11;;;;;;;3.97;0.93;;;18.40;59.10;;;;;;6247580;23;20185;-83
2024/03/09 14:16:38;;;;;;;3.20;1.00;;;18.30;59.60;;;;;;6251764;22;20198;-82
2024/03/09 14:19:05;;;;;;;2.47;1.10;;;18.40;58.70;;;;;;6251835;22;20121;-83
2024/03/09 14:21:52;;;;;;;2.65;0.90;;;18.40;58.90;;;;;;6162204;23;20852;-82
2024/03/09 14:24:19;;;;;;;5.53;1.23;;;18.40;58.20;;;;;;6138683;23;20306;-82
2024/03/09 14:26:45;;;;;;;3.80;1.10;;;18.40;58.90;;;;;;6106475;23;20181;-82
2024/03/09 14:29:12;;;;;;;4.50;1.25;;;18.30;59.70;;;;;;6132079;23;20155;-82
2024/03/09 14:31:38;;;;;;;4.03;1.10;;;18.30;59.70;;;;;;6108504;23;20476;-83
2024/03/09 14:34:03;;;;;;;3.42;1.30;;;18.30;59.70;;;;;;6109399;23;20159;-82
2024/03/09 14:36:35;;;;;;;3.78;1.20;;;18.30;59.20;;;;;;6131897;23;20159;-84
2024/03/09 14:39:01;;;;;;;1.15;0.90;;;18.30;58.90;;;;;;6132520;23;20135;-82
2024/03/09 14:41:27;;;;;;;4.80;1.65;;;18.30;59.70;;;;;;6107992;23;20179;-82
2024/03/09 14:43:53;;;;;;;4.32;1.10;;;18.40;59.20;;;;;;6157392;23;20154;-82
2024/03/09 14:46:20;;;;;;;4.18;1.00;;;18.30;58.30;;;;;;6133105;23;20230;-83
2024/03/09 14:48:51;;;;;;;5.13;1.35;;;18.40;59.60;;;;;;6158364;23;20551;-82
2024/03/09 14:51:21;;;;;;;4.13;1.15;;;18.30;59.30;;;;;;6110168;23;20154;-82
2024/03/09 14:53:47;;;;;;;3.60;1.15;;;18.30;59.50;;;;;;6186432;23;20229;-82
2024/03/09 14:56:14;;;;;;;5.53;1.00;;;18.40;58.60;;;;;;6187700;23;20135;-83
2024/03/09 14:58:41;;;;;;;2.97;1.13;;;18.40;58.40;;;;;;6224003;22;20279;-83
2024/03/09 15:01:12;;;;;;;1.67;0.90;;;18.40;58.70;;;;;;6255088;22;20200;-82
2024/03/09 15:03:42;;;;;;;2.53;1.20;;;18.40;58.70;;;;;;6232264;22;20184;-83
2024/03/09 15:06:11;;;;;;;2.60;1.00;;;18.40;58.40;;;;;;6231715;22;20187;-83
2024/03/09 15:08:39;;;;;;;1.98;0.80;;;18.40;58.40;;;;;;6284453;22;20190;-82
2024/03/09 15:11:14;;;;;;;2.63;0.90;;;18.40;58.60;;;;;;6253839;22;20129;-82
2024/03/09 15:13:43;;;;;;;4.03;1.13;;;18.30;59.20;;;;;;6279745;22;20622;-83
2024/03/09 15:16:10;;;;;;;2.08;1.00;;;18.30;58.30;;;;;;6231137;22;20157;-83
2024/03/09 15:18:37;;;;;;;3.58;1.00;;;18.40;58.90;;;;;;6197175;23;20654;-83
2024/03/09 15:21:17;;;;;;;2.67;1.10;;;18.40;58.50;;;;;;6198406;23;20178;-83
2024/03/09 15:23:51;;;;;;;2.95;1.10;;;18.40;58.90;;;;;;6188093;23;20260;-83
2024/03/09 15:26:22;;;;;;;3.75;0.95;;;18.40;59.70;;;;;;6185918;23;20135;-83
2024/03/09 15:28:52;;;;;;;3.00;1.10;;;18.30;59.80;;;;;;6187032;23;20151;-82
2024/03/09 15:31:24;;;;;;;1.98;1.10;;;18.30;59.60;;;;;;6185606;23;20149;-82
2024/03/09 15:33:52;;;;;;;3.20;1.10;;;18.30;59.20;;;;;;6160568;23;20154;-83
2024/03/09 15:36:19;;;;;;;1.48;1.02;;;18.30;60.10;;;;;;6184641;23;20139;-82
2024/03/09 15:38:47;;;;;;;2.85;1.00;;;18.30;59.50;;;;;;6161546;23;20178;-83
2024/03/09 15:41:15;;;;;;;2.08;1.00;;;18.30;59.50;;;;;;6186845;23;20127;-84
2024/03/09 15:43:49;;;;;;;1.77;1.00;;;18.30;58.60;;;;;;6188194;23;20860;-83
2024/03/09 15:46:17;;;;;;;1.88;0.77;;;18.30;58.60;;;;;;6186995;23;20157;-82
2024/03/09 15:48:48;;;;;;;3.58;1.45;;;18.40;58.90;;;;;;6202153;22;20209;-84
2024/03/09 15:51:17;;;;;;;6.07;1.10;;;18.40;59.00;;;;;;6230235;22;20137;-83
2024/03/09 15:53:43;;;;;;;2.55;0.90;;;18.40;58.80;;;;;;6255262;22;20125;-84
2024/03/09 15:56:10;;;;;;;1.92;1.10;;;18.40;59.30;;;;;;6230318;22;20133;-84
2024/03/09 15:58:39;;;;;;;2.88;1.00;;;18.30;58.80;;;;;;6255882;22;20148;-83
2024/03/09 16:01:09;;;;;;;2.75;0.75;;;18.30;59.80;;;;;;6252342;22;20564;-83
2024/03/09 16:03:59;;;;;;;3.65;1.27;;;18.30;58.70;;;;;;6224565;22;20169;-83
2024/03/09 16:06:27;;;;;;;5.10;1.08;;;18.30;59.40;;;;;;6251332;22;20126;-83
2024/03/09 16:09:11;;;;;;;4.15;1.20;;;18.30;58.50;;;;;;6183210;23;20146;-82
2024/03/09 16:11:38;;;;;;;5.07;1.20;;;18.30;59.90;;;;;;6126185;23;20187;-84
2024/03/09 16:14:11;;;;;;;6.43;1.33;;;18.30;59.40;;;;;;6105195;23;20152;-83
2024/03/09 16:16:38;;;;;;;6.55;1.20;;;18.30;59.80;;;;;;6102427;23;20206;-83
2024/03/09 16:19:05;;;;;;;4.40;1.10;;;18.30;59.60;;;;;;6076910;23;20239;-82
2024/03/09 16:21:36;;;;;;;5.13;1.00;;;18.30;60.00;;;;;;6076950;23;20156;-83
2024/03/09 16:24:06;;;;;;;4.53;1.13;;;18.20;60.20;;;;;;6079192;23;20187;-83
2024/03/09 16:26:35;;;;;;;3.85;0.93;;;18.20;60.60;;;;;;6078648;23;20160;-83